createdAt,value
2024-01-30T00:02:19.150Z,-1.61
2024-01-30T00:04:46.182Z,-1.62
2024-01-30T00:07:13.203Z,-1.62
2024-01-30T00:09:41.141Z,-1.65
2024-01-30T00:12:08.352Z,-1.65
2024-01-30T00:14:35.418Z,-1.65
2024-01-30T00:17:02.366Z,-1.66
2024-01-30T00:19:29.407Z,-1.64
2024-01-30T00:21:56.496Z,-1.69
2024-01-30T00:24:23.534Z,-1.66
2024-01-30T00:26:50.525Z,-1.71
2024-01-30T00:29:20.902Z,-1.77
2024-01-30T00:31:47.991Z,-1.77
2024-01-30T00:34:15.244Z,-1.75
2024-01-30T00:36:42.633Z,-1.78
2024-01-30T00:39:10.940Z,-1.79
2024-01-30T00:41:37.992Z,-1.78
2024-01-30T00:44:05.450Z,-1.81
2024-01-30T00:46:32.658Z,-1.82
2024-01-30T00:48:59.753Z,-1.84
2024-01-30T00:51:26.930Z,-1.86
2024-01-30T00:53:54.204Z,-1.86
2024-01-30T00:56:21.269Z,-1.85
2024-01-30T00:58:48.337Z,-1.86
2024-01-30T01:01:16.258Z,-1.86
2024-01-30T01:03:45.259Z,-1.87
2024-01-30T01:06:12.482Z,-1.90
2024-01-30T01:08:39.596Z,-1.90
2024-01-30T01:11:07.057Z,-1.90
2024-01-30T01:13:34.159Z,-1.91
2024-01-30T01:16:01.304Z,-1.92
2024-01-30T01:18:28.769Z,-1.93
2024-01-30T01:20:56.024Z,-1.98
2024-01-30T01:23:23.117Z,-1.99
2024-01-30T01:25:50.240Z,-1.95
2024-01-30T01:28:17.783Z,-2.02
2024-01-30T01:30:45.112Z,-2.00
2024-01-30T01:33:14.859Z,-2.01
2024-01-30T01:35:42.117Z,-1.99
2024-01-30T01:38:09.265Z,-2.03
2024-01-30T01:40:36.387Z,-2.02
2024-01-30T01:43:06.611Z,-2.03
2024-01-30T01:45:34.099Z,-2.04
2024-01-30T01:48:01.267Z,-2.05
2024-01-30T01:50:28.732Z,-2.08
2024-01-30T01:52:56.867Z,-2.10
2024-01-30T01:55:26.287Z,-2.11
2024-01-30T01:57:55.266Z,-2.13
2024-01-30T02:00:23.113Z,-2.13
2024-01-30T02:02:51.309Z,-2.22
2024-01-30T02:05:18.704Z,-2.12
2024-01-30T02:07:46.002Z,-2.09
2024-01-30T02:10:13.543Z,-2.09
2024-01-30T02:12:41.656Z,-2.13
2024-01-30T02:15:09.503Z,-2.15
2024-01-30T02:17:36.794Z,-2.23
2024-01-30T02:20:04.982Z,-2.19
2024-01-30T02:22:36.294Z,-2.23
2024-01-30T02:25:03.848Z,-2.25
2024-01-30T02:27:31.050Z,-2.28
2024-01-30T02:29:58.114Z,-2.27
2024-01-30T02:32:25.184Z,-2.28
2024-01-30T02:34:52.237Z,-2.30
2024-01-30T02:37:19.449Z,-2.33
2024-01-30T02:39:46.723Z,-2.35
2024-01-30T02:42:13.843Z,-2.38
2024-01-30T02:44:40.935Z,-2.34
2024-01-30T02:47:07.988Z,-2.37
2024-01-30T02:49:35.327Z,-2.38
2024-01-30T02:52:02.562Z,-2.41
2024-01-30T02:54:32.005Z,-2.43
2024-01-30T02:56:59.393Z,-2.40
2024-01-30T02:59:26.628Z,-2.39
2024-01-30T03:01:53.815Z,-2.37
2024-01-30T03:04:21.166Z,-2.36
2024-01-30T03:06:49.030Z,-2.38
2024-01-30T03:09:19.121Z,-2.36
2024-01-30T03:11:46.599Z,-2.42
2024-01-30T03:14:13.839Z,-2.43
2024-01-30T03:16:41.006Z,-2.49
2024-01-30T03:19:11.486Z,-2.48
2024-01-30T03:21:38.890Z,-2.47
2024-01-30T03:24:06.567Z,-2.49
2024-01-30T03:26:33.886Z,-2.47
2024-01-30T03:29:01.030Z,-2.46
2024-01-30T03:31:28.162Z,-2.44
2024-01-30T03:33:55.550Z,-2.46
2024-01-30T03:36:22.752Z,-2.50
2024-01-30T03:38:50.090Z,-2.52
2024-01-30T03:41:17.364Z,-2.50
2024-01-30T03:43:44.481Z,-2.52
2024-01-30T03:46:13.864Z,-2.53
2024-01-30T03:48:41.382Z,-2.54
2024-01-30T03:51:08.761Z,-2.61
2024-01-30T03:53:35.787Z,-2.55
2024-01-30T03:56:02.911Z,-2.54
2024-01-30T03:58:29.968Z,-2.56
2024-01-30T04:00:57.141Z,-2.59
2024-01-30T04:03:24.226Z,-2.57
2024-01-30T04:05:52.442Z,-2.64
2024-01-30T04:08:19.403Z,-2.66
2024-01-30T04:10:46.493Z,-2.67
2024-01-30T04:13:13.660Z,-2.70
2024-01-30T04:15:41.093Z,-2.68
2024-01-30T04:18:08.321Z,-2.68
2024-01-30T04:20:35.330Z,-2.73
2024-01-30T04:23:02.318Z,-2.76
2024-01-30T04:25:29.373Z,-2.76
2024-01-30T04:27:56.424Z,-2.75
2024-01-30T04:30:23.437Z,-2.78
2024-01-30T04:32:50.417Z,-2.76
2024-01-30T04:35:17.766Z,-2.81
2024-01-30T04:37:44.930Z,-2.76
2024-01-30T04:40:12.499Z,-2.75
2024-01-30T04:42:39.598Z,-2.78
2024-01-30T04:45:07.881Z,-2.79
2024-01-30T04:47:34.945Z,-2.77
2024-01-30T04:50:03.377Z,-2.83
2024-01-30T04:52:30.453Z,-2.84
2024-01-30T04:54:57.426Z,-2.84
2024-01-30T04:57:24.586Z,-2.86
2024-01-30T04:59:51.533Z,-2.84
2024-01-30T05:02:18.563Z,-2.83
2024-01-30T05:04:45.862Z,-2.90
2024-01-30T05:07:12.929Z,-2.84
2024-01-30T05:09:39.892Z,-2.88
2024-01-30T05:12:08.129Z,-2.87
2024-01-30T05:14:35.154Z,-2.88
2024-01-30T05:17:02.130Z,-2.88
2024-01-30T05:19:29.176Z,-2.89
2024-01-30T05:21:56.201Z,-2.92
2024-01-30T05:24:24.294Z,-2.82
2024-01-30T05:26:52.492Z,-2.89
2024-01-30T05:29:19.454Z,-2.95
2024-01-30T05:31:46.471Z,-2.93
2024-01-30T05:34:13.496Z,-2.95
2024-01-30T05:36:40.757Z,-2.93
2024-01-30T05:39:09.388Z,-2.95
2024-01-30T05:41:36.438Z,-2.99
2024-01-30T05:44:03.542Z,-2.97
2024-01-30T05:46:30.614Z,-3.01
2024-01-30T05:48:57.672Z,-3.03
2024-01-30T05:51:25.171Z,-3.01
2024-01-30T05:53:52.260Z,-2.95
2024-01-30T05:56:19.284Z,-3.06
2024-01-30T05:58:46.314Z,-2.96
2024-01-30T06:01:13.373Z,-2.98
2024-01-30T06:03:40.654Z,-3.01
2024-01-30T06:06:07.830Z,-3.01
2024-01-30T06:08:34.780Z,-2.96
2024-01-30T06:11:02.234Z,-2.97
2024-01-30T06:13:29.225Z,-2.98
2024-01-30T06:15:56.267Z,-2.93
2024-01-30T06:18:23.234Z,-2.98
2024-01-30T06:20:50.209Z,-2.95
2024-01-30T06:23:17.243Z,-2.94
2024-01-30T06:25:44.250Z,-2.94
2024-01-30T06:28:11.657Z,-2.96
2024-01-30T06:30:38.632Z,-2.95
2024-01-30T06:33:05.928Z,-2.95
2024-01-30T06:35:33.004Z,-2.96
2024-01-30T06:38:00.179Z,-2.93
2024-01-30T06:40:27.173Z,-2.96
2024-01-30T06:42:54.251Z,-2.96
2024-01-30T06:45:21.315Z,-2.95
2024-01-30T06:47:48.289Z,-2.96
2024-01-30T06:50:15.835Z,-2.95
2024-01-30T06:52:42.983Z,-2.92
2024-01-30T06:55:10.731Z,-2.96
2024-01-30T06:57:37.738Z,-2.88
2024-01-30T07:00:05.387Z,-2.91
2024-01-30T07:02:32.361Z,-2.88
2024-01-30T07:04:59.453Z,-2.88
2024-01-30T07:07:26.603Z,-2.86
2024-01-30T07:09:58.214Z,-2.87
2024-01-30T07:12:27.164Z,-2.88
2024-01-30T07:14:54.683Z,-2.85
2024-01-30T07:17:21.672Z,-2.82
2024-01-30T07:19:48.810Z,-2.87
2024-01-30T07:22:16.151Z,-2.82
2024-01-30T07:24:48.430Z,-2.84
2024-01-30T07:27:16.332Z,-2.82
2024-01-30T07:29:43.362Z,-2.85
2024-01-30T07:32:10.289Z,-2.87
2024-01-30T07:34:45.047Z,-2.83
2024-01-30T07:37:17.403Z,-2.78
2024-01-30T07:39:44.460Z,-2.77
2024-01-30T07:42:11.469Z,-2.69
2024-01-30T07:44:38.409Z,-2.63
2024-01-30T07:47:06.892Z,-2.60
2024-01-30T07:49:34.068Z,-2.54
2024-01-30T07:52:01.248Z,-2.48
2024-01-30T07:54:28.320Z,-2.46
2024-01-30T07:56:58.107Z,-2.39
2024-01-30T07:59:26.128Z,-2.32
2024-01-30T08:01:53.266Z,-2.34
2024-01-30T08:04:20.411Z,-2.33
2024-01-30T08:06:47.657Z,-2.25
2024-01-30T08:09:15.910Z,-2.16
2024-01-30T08:11:42.849Z,-2.10
2024-01-30T08:14:09.852Z,-2.08
2024-01-30T08:16:36.838Z,-1.96
2024-01-30T08:19:04.393Z,-1.92
2024-01-30T08:21:31.475Z,-1.89
2024-01-30T08:23:58.509Z,-1.80
2024-01-30T08:26:25.560Z,-1.73
2024-01-30T08:28:55.019Z,-1.62
2024-01-30T08:31:22.151Z,-1.48
2024-01-30T08:36:17.949Z,-1.22
2024-01-30T08:38:45.142Z,-1.10
2024-01-30T08:41:12.129Z,-0.98
2024-01-30T08:43:39.094Z,-0.92
2024-01-30T08:46:06.095Z,-0.71
2024-01-30T08:48:33.246Z,-0.59
2024-01-30T08:51:00.499Z,-0.44
2024-01-30T08:53:27.466Z,-0.33
2024-01-30T08:55:54.441Z,-0.23
2024-01-30T08:58:21.431Z,-0.15
2024-01-30T09:00:48.643Z,-0.04
2024-01-30T09:03:15.667Z,0.03
2024-01-30T09:05:42.742Z,0.13
2024-01-30T09:08:09.832Z,0.19
2024-01-30T09:10:36.878Z,0.36
2024-01-30T09:13:04.529Z,0.48
2024-01-30T09:15:31.578Z,0.57
2024-01-30T09:17:58.537Z,0.69
2024-01-30T09:20:25.502Z,0.86
2024-01-30T09:22:52.485Z,0.91
2024-01-30T09:25:22.305Z,1.08
2024-01-30T09:27:49.324Z,1.20
2024-01-30T09:30:16.586Z,1.31
2024-01-30T09:32:45.004Z,1.43
2024-01-30T09:35:12.330Z,1.50
2024-01-30T09:37:39.445Z,1.62
2024-01-30T09:40:07.925Z,1.77
2024-01-30T09:42:37.545Z,1.93
2024-01-30T09:45:06.479Z,2.03
2024-01-30T09:47:45.009Z,2.15
2024-01-30T09:50:14.484Z,2.30
2024-01-30T09:52:41.959Z,2.46
2024-01-30T09:55:09.675Z,2.62
2024-01-30T09:57:37.623Z,2.74
2024-01-30T10:00:10.352Z,2.84
2024-01-30T10:02:40.949Z,2.99
2024-01-30T10:05:09.881Z,3.18
2024-01-30T10:07:37.219Z,3.30
2024-01-30T10:10:06.364Z,3.50
2024-01-30T10:12:33.703Z,3.70
2024-01-30T10:15:00.652Z,3.95
2024-01-30T10:17:33.228Z,4.11
2024-01-30T10:20:02.227Z,4.36
2024-01-30T10:22:30.030Z,4.52
2024-01-30T10:24:57.579Z,4.73
2024-01-30T10:27:28.848Z,4.93
2024-01-30T10:29:55.849Z,5.08
2024-01-30T10:32:23.182Z,5.24
2024-01-30T10:34:50.508Z,5.42
2024-01-30T10:37:19.049Z,5.43
2024-01-30T10:39:47.425Z,5.60
2024-01-30T10:42:17.254Z,5.77
2024-01-30T10:45:14.124Z,5.77
2024-01-30T10:47:45.554Z,5.98
2024-01-30T10:50:12.904Z,6.25
2024-01-30T10:52:41.372Z,6.42
2024-01-30T10:55:08.737Z,6.57
2024-01-30T10:57:39.927Z,6.68
2024-01-30T11:00:14.147Z,6.85
2024-01-30T11:02:43.364Z,6.94
2024-01-30T11:05:10.619Z,7.11
2024-01-30T11:07:37.756Z,7.27
2024-01-30T11:10:05.949Z,7.36
2024-01-30T11:12:35.097Z,7.49
2024-01-30T11:15:14.974Z,7.54
2024-01-30T11:17:45.917Z,7.64
2024-01-30T11:20:36.969Z,7.81
2024-01-30T11:23:07.486Z,7.88
2024-01-30T11:25:35.052Z,7.96
2024-01-30T11:28:02.238Z,8.00
2024-01-30T11:30:33.591Z,8.04
2024-01-30T11:33:06.388Z,8.11
2024-01-30T11:35:40.845Z,8.08
2024-01-30T11:38:11.133Z,8.18
2024-01-30T11:40:42.202Z,8.21
2024-01-30T11:43:10.746Z,8.23
2024-01-30T11:45:38.855Z,8.29
2024-01-30T11:48:07.025Z,8.30
2024-01-30T11:50:35.708Z,8.17
2024-01-30T11:53:03.571Z,8.20
2024-01-30T11:55:34.759Z,8.21
2024-01-30T11:58:03.977Z,8.28
2024-01-30T12:00:32.676Z,8.30
2024-01-30T12:03:02.405Z,8.39
2024-01-30T12:05:30.798Z,8.52
2024-01-30T12:08:02.257Z,8.60
2024-01-30T12:10:30.305Z,8.67
2024-01-30T12:12:58.251Z,8.69
2024-01-30T12:15:26.012Z,8.72
2024-01-30T12:17:53.246Z,8.75
2024-01-30T12:20:23.475Z,8.83
2024-01-30T12:22:51.870Z,8.90
2024-01-30T12:25:22.136Z,8.88
2024-01-30T12:27:51.845Z,8.86
2024-01-30T12:30:21.782Z,8.90
2024-01-30T12:32:52.617Z,8.96
2024-01-30T12:35:22.205Z,8.94
2024-01-30T12:37:51.355Z,8.95
2024-01-30T12:40:19.844Z,9.07
2024-01-30T12:42:50.759Z,9.13
2024-01-30T12:45:23.096Z,9.19
2024-01-30T12:47:50.446Z,9.12
2024-01-30T12:50:18.727Z,9.13
2024-01-30T12:52:49.447Z,9.08
2024-01-30T12:55:17.982Z,9.15
2024-01-30T12:57:45.102Z,9.23
2024-01-30T13:00:12.398Z,9.24
2024-01-30T13:02:39.417Z,9.32
2024-01-30T13:05:07.277Z,9.49
2024-01-30T13:07:34.915Z,9.56
2024-01-30T13:10:04.469Z,9.74
2024-01-30T13:12:33.833Z,9.87
2024-01-30T13:15:05.887Z,9.91
2024-01-30T13:17:33.658Z,10.04
2024-01-30T13:20:07.691Z,10.22
2024-01-30T13:22:40.442Z,10.36
2024-01-30T13:25:08.944Z,10.47
2024-01-30T13:27:37.536Z,10.57
2024-01-30T13:30:05.568Z,10.60
2024-01-30T13:32:32.615Z,10.64
2024-01-30T13:34:59.843Z,10.68
2024-01-30T13:37:26.979Z,10.81
2024-01-30T13:39:54.153Z,10.89
2024-01-30T13:42:21.147Z,10.95
2024-01-30T13:44:48.142Z,10.98
2024-01-30T13:47:15.240Z,11.11
2024-01-30T13:49:42.413Z,11.17
2024-01-30T13:52:09.886Z,11.22
2024-01-30T13:54:36.936Z,11.20
2024-01-30T13:57:04.109Z,11.15
2024-01-30T13:59:31.291Z,11.17
2024-01-30T14:01:58.289Z,11.14
2024-01-30T14:04:25.388Z,11.11
2024-01-30T14:06:57.474Z,10.95
2024-01-30T14:09:33.637Z,10.92
2024-01-30T14:12:00.763Z,10.91
2024-01-30T14:14:27.751Z,10.91
2024-01-30T14:16:54.737Z,10.91
2024-01-30T14:19:23.201Z,10.90
2024-01-30T14:21:50.341Z,10.93
2024-01-30T14:24:17.310Z,11.02
2024-01-30T14:26:45.571Z,11.03
2024-01-30T14:29:12.588Z,11.00
2024-01-30T14:31:39.599Z,10.98
2024-01-30T14:34:06.741Z,10.90
2024-01-30T14:36:33.919Z,10.81
2024-01-30T14:39:00.899Z,10.74
2024-01-30T14:41:27.942Z,10.70
2024-01-30T14:43:54.908Z,10.64
2024-01-30T14:46:23.064Z,10.61
2024-01-30T14:48:52.788Z,10.50
2024-01-30T14:51:19.877Z,10.35
2024-01-30T14:53:46.985Z,10.33
2024-01-30T14:56:14.262Z,10.24
2024-01-30T14:58:41.502Z,10.22
2024-01-30T15:01:08.611Z,10.16
2024-01-30T15:03:37.101Z,10.10
2024-01-30T15:06:06.292Z,10.01
2024-01-30T15:08:33.821Z,9.97
2024-01-30T15:11:01.009Z,9.92
2024-01-30T15:13:28.108Z,9.87
2024-01-30T15:15:55.270Z,9.86
2024-01-30T15:18:22.377Z,9.79
2024-01-30T15:20:49.427Z,9.66
2024-01-30T15:23:17.200Z,9.55
2024-01-30T15:25:45.182Z,9.52
2024-01-30T15:28:12.293Z,9.45
2024-01-30T15:30:39.302Z,9.39
2024-01-30T15:33:06.772Z,9.32
2024-01-30T15:35:33.977Z,9.18
2024-01-30T15:38:01.062Z,9.02
2024-01-30T15:40:28.377Z,9.01
2024-01-30T15:42:55.540Z,8.89
2024-01-30T15:45:22.520Z,8.80
2024-01-30T15:47:49.551Z,8.71
2024-01-30T15:50:16.693Z,8.60
2024-01-30T15:52:43.859Z,8.51
2024-01-30T15:55:10.901Z,8.39
2024-01-30T15:57:37.922Z,8.31
2024-01-30T16:00:05.811Z,8.15
2024-01-30T16:02:38.853Z,8.09
2024-01-30T16:05:07.186Z,8.00
2024-01-30T16:07:34.965Z,7.92
2024-01-30T16:10:03.227Z,7.77
2024-01-30T16:12:30.389Z,7.69
2024-01-30T16:14:57.351Z,7.57
2024-01-30T16:17:24.409Z,7.45
2024-01-30T16:19:51.770Z,7.36
2024-01-30T16:22:19.548Z,7.30
2024-01-30T16:24:48.437Z,7.20
2024-01-30T16:27:15.585Z,7.14
2024-01-30T16:29:42.610Z,7.05
2024-01-30T16:32:12.644Z,6.86
2024-01-30T16:34:39.612Z,6.81
2024-01-30T16:37:07.325Z,6.72
2024-01-30T16:39:34.490Z,6.65
2024-01-30T16:42:01.430Z,6.57
2024-01-30T16:44:28.369Z,6.53
2024-01-30T16:46:55.367Z,6.43
2024-01-30T16:49:22.531Z,6.35
2024-01-30T16:51:49.580Z,6.28
2024-01-30T16:54:16.667Z,6.14
2024-01-30T16:56:49.328Z,6.09
2024-01-30T16:59:17.496Z,6.00
2024-01-30T17:01:46.044Z,5.94
2024-01-30T17:04:13.587Z,5.85
2024-01-30T17:06:40.629Z,5.78
2024-01-30T17:09:08.681Z,5.74
2024-01-30T17:11:35.635Z,5.67
2024-01-30T17:14:02.893Z,5.61
2024-01-30T17:16:29.862Z,5.53
2024-01-30T17:18:58.106Z,5.47
2024-01-30T17:21:26.428Z,5.43
2024-01-30T17:23:53.379Z,5.37
2024-01-30T17:26:21.942Z,5.32
2024-01-30T17:28:49.031Z,5.29
2024-01-30T17:31:16.051Z,5.26
2024-01-30T17:33:43.448Z,5.22
2024-01-30T17:36:10.612Z,5.14
2024-01-30T17:38:37.606Z,5.08
2024-01-30T17:41:11.845Z,5.01
2024-01-30T17:43:39.889Z,4.94
2024-01-30T17:46:08.154Z,4.90
2024-01-30T17:48:35.413Z,4.88
2024-01-30T17:51:04.392Z,4.83
2024-01-30T17:53:31.500Z,4.76
2024-01-30T17:56:02.707Z,4.72
2024-01-30T17:58:29.998Z,4.69
2024-01-30T18:00:58.307Z,4.65
2024-01-30T18:03:25.380Z,4.56
2024-01-30T18:05:53.076Z,4.49
2024-01-30T18:08:20.067Z,4.42
2024-01-30T18:10:47.272Z,4.39
2024-01-30T18:13:14.899Z,4.28
2024-01-30T18:15:41.904Z,4.24
2024-01-30T18:18:09.006Z,4.11
2024-01-30T18:20:36.005Z,4.12
2024-01-30T18:23:03.142Z,4.05
2024-01-30T18:25:30.621Z,4.04
2024-01-30T18:27:57.732Z,3.97
2024-01-30T18:30:24.776Z,3.94
2024-01-30T18:32:53.391Z,3.91
2024-01-30T18:35:21.034Z,3.89
2024-01-30T18:37:48.108Z,3.81
2024-01-30T18:40:17.036Z,3.83
2024-01-30T18:42:45.762Z,3.84
2024-01-30T18:45:13.274Z,3.77
2024-01-30T18:47:40.318Z,3.69
2024-01-30T18:50:08.220Z,3.72
2024-01-30T18:52:35.389Z,3.71
2024-01-30T18:55:03.932Z,3.68
2024-01-30T18:57:31.043Z,3.68
2024-01-30T18:59:57.996Z,3.70
2024-01-30T19:02:25.092Z,3.68
2024-01-30T19:04:53.669Z,3.69
2024-01-30T19:07:21.679Z,3.68
2024-01-30T19:09:49.979Z,3.66
2024-01-30T19:12:17.018Z,3.65
2024-01-30T19:14:43.987Z,3.66
2024-01-30T19:17:11.046Z,3.64
2024-01-30T19:19:38.182Z,3.63
2024-01-30T19:22:05.499Z,3.64
2024-01-30T19:24:32.535Z,3.61
2024-01-30T19:26:59.491Z,3.57
2024-01-30T19:29:26.497Z,3.61
2024-01-30T19:31:53.538Z,3.62
2024-01-30T19:34:20.566Z,3.56
2024-01-30T19:36:47.900Z,3.63
2024-01-30T19:39:14.944Z,3.63
2024-01-30T19:41:45.050Z,3.59
2024-01-30T19:44:12.468Z,3.52
2024-01-30T19:46:39.525Z,3.50
2024-01-30T19:49:06.786Z,3.50
2024-01-30T19:51:33.864Z,3.47
2024-01-30T19:54:00.800Z,3.49
2024-01-30T19:56:27.793Z,3.45
2024-01-30T19:58:55.152Z,3.40
2024-01-30T20:01:23.729Z,3.34
2024-01-30T20:03:50.804Z,3.41
2024-01-30T20:06:17.915Z,3.38
2024-01-30T20:08:44.979Z,3.35
2024-01-30T20:11:16.362Z,3.37
2024-01-30T20:13:43.504Z,3.39
2024-01-30T20:16:12.086Z,3.36
2024-01-30T20:18:39.207Z,3.35
2024-01-30T20:21:06.194Z,3.31
2024-01-30T20:23:33.521Z,3.28
2024-01-30T20:26:01.430Z,3.26
2024-01-30T20:28:28.608Z,3.25
2024-01-30T20:30:55.742Z,3.23
2024-01-30T20:33:22.990Z,3.23
2024-01-30T20:35:50.070Z,3.20
2024-01-30T20:38:17.518Z,3.19
2024-01-30T20:40:44.695Z,3.15
2024-01-30T20:43:12.247Z,3.12
2024-01-30T20:45:39.310Z,3.04
2024-01-30T20:48:07.397Z,2.98
2024-01-30T20:50:34.433Z,2.97
2024-01-30T20:53:01.454Z,2.94
2024-01-30T20:55:28.451Z,2.91
2024-01-30T20:57:55.460Z,2.87
2024-01-30T21:00:22.717Z,2.83
2024-01-30T21:02:49.739Z,2.81
2024-01-30T21:05:20.178Z,2.76
2024-01-30T21:07:47.280Z,2.74
2024-01-30T21:10:14.775Z,2.68
2024-01-30T21:12:41.744Z,2.59
2024-01-30T21:15:10.995Z,2.47
2024-01-30T21:17:38.399Z,2.48
2024-01-30T21:20:06.256Z,2.46
2024-01-30T21:22:33.393Z,2.42
2024-01-30T21:25:00.508Z,2.39
2024-01-30T21:27:27.833Z,2.36
2024-01-30T21:29:54.778Z,2.29
2024-01-30T21:32:21.996Z,2.24
2024-01-30T21:34:49.466Z,2.15
2024-01-30T21:37:16.911Z,2.08
2024-01-30T21:39:44.092Z,2.07
2024-01-30T21:42:11.121Z,2.01
2024-01-30T21:44:38.114Z,1.97
2024-01-30T21:47:05.117Z,1.91
2024-01-30T21:49:32.139Z,1.87
2024-01-30T21:51:59.179Z,1.79
2024-01-30T21:54:26.729Z,1.75
2024-01-30T21:56:53.698Z,1.69
2024-01-30T21:59:20.646Z,1.66
2024-01-30T22:01:47.724Z,1.60
2024-01-30T22:04:14.705Z,1.60
2024-01-30T22:06:41.715Z,1.55
2024-01-30T22:09:08.683Z,1.53
2024-01-30T22:11:35.746Z,1.50
2024-01-30T22:14:02.810Z,1.45
2024-01-30T22:16:29.860Z,1.41
2024-01-30T22:18:56.957Z,1.41
2024-01-30T22:21:23.926Z,1.34
2024-01-30T22:23:50.886Z,1.32
2024-01-30T22:26:17.826Z,1.31
2024-01-30T22:28:44.932Z,1.27
2024-01-30T22:31:13.138Z,1.21
2024-01-30T22:33:40.170Z,1.22
2024-01-30T22:36:08.533Z,1.17
2024-01-30T22:38:35.689Z,1.15
2024-01-30T22:41:02.655Z,1.13
2024-01-30T22:43:33.658Z,1.07
2024-01-30T22:46:01.180Z,1.02
2024-01-30T22:48:28.553Z,1.04
2024-01-30T22:50:55.594Z,0.99
2024-01-30T22:53:22.693Z,0.98
2024-01-30T22:55:49.646Z,0.86
2024-01-30T22:58:16.922Z,0.93
2024-01-30T23:00:43.905Z,0.90
2024-01-30T23:03:13.581Z,0.88
2024-01-30T23:05:41.378Z,0.87
2024-01-30T23:08:08.365Z,0.81
2024-01-30T23:10:35.594Z,0.83
2024-01-30T23:13:03.593Z,0.79
2024-01-30T23:15:30.986Z,0.81
2024-01-30T23:17:58.972Z,0.74
2024-01-30T23:20:26.071Z,0.77
2024-01-30T23:22:53.110Z,0.76
2024-01-30T23:25:20.251Z,0.72
2024-01-30T23:27:47.242Z,0.71
2024-01-30T23:30:14.533Z,0.70
2024-01-30T23:32:43.419Z,0.72
2024-01-30T23:35:11.563Z,0.65
2024-01-30T23:37:40.960Z,0.70
2024-01-30T23:40:13.800Z,0.72
2024-01-30T23:42:41.160Z,0.75
2024-01-30T23:45:08.640Z,0.72
2024-01-30T23:47:35.627Z,0.81
2024-01-30T23:50:02.849Z,0.77
2024-01-30T23:52:29.908Z,0.82
2024-01-30T23:54:56.928Z,0.83
2024-01-30T23:57:23.989Z,0.82
2024-01-30T23:59:51.170Z,0.87
